createdAt,value
2018-02-04T00:00:54.596Z,21.85
2018-02-04T00:03:23.270Z,14.65
2018-02-04T00:05:51.475Z,12.57
2018-02-04T00:08:19.678Z,10.50
2018-02-04T00:10:48.776Z,11.48
2018-02-04T00:13:17.731Z,14.38
2018-02-04T00:15:45.924Z,12.43
2018-02-04T00:18:14.129Z,13.30
2018-02-04T00:20:42.373Z,13.02
2018-02-04T00:23:10.656Z,12.68
2018-02-04T00:25:39.639Z,14.63
2018-02-04T00:28:07.917Z,14.30
2018-02-04T00:30:36.106Z,13.77
2018-02-04T00:33:05.111Z,12.80
2018-02-04T00:35:33.297Z,15.05
2018-02-04T00:38:01.508Z,14.52
2018-02-04T00:40:29.705Z,15.45
2018-02-04T00:42:57.924Z,12.13
2018-02-04T00:45:26.132Z,13.13
2018-02-04T00:47:54.356Z,14.55
2018-02-04T00:50:22.538Z,12.68
2018-02-04T00:52:50.720Z,12.73
2018-02-04T00:55:19.480Z,13.88
2018-02-04T00:57:48.449Z,11.80
2018-02-04T01:00:16.658Z,10.75
2018-02-04T01:02:45.412Z,11.30
2018-02-04T01:05:13.653Z,13.98
2018-02-04T01:07:41.929Z,9.73
2018-02-04T01:10:10.613Z,8.88
2018-02-04T01:12:38.845Z,9.93
2018-02-04T01:15:07.061Z,10.23
2018-02-04T01:17:35.284Z,9.98
2018-02-04T01:20:04.254Z,10.32
2018-02-04T01:22:33.411Z,10.35
2018-02-04T01:25:01.625Z,11.85
2018-02-04T01:27:29.841Z,9.68
2018-02-04T01:29:58.077Z,15.65
2018-02-04T01:32:26.263Z,11.20
2018-02-04T01:34:55.211Z,9.57
2018-02-04T01:37:23.845Z,9.70
2018-02-04T01:39:52.789Z,8.55
2018-02-04T01:42:21.007Z,9.40
2018-02-04T01:44:49.978Z,8.00
2018-02-04T01:47:18.302Z,9.75
2018-02-04T01:49:46.505Z,8.02
2018-02-04T01:52:14.684Z,9.75
2018-02-04T01:54:42.896Z,8.70
2018-02-04T01:57:11.837Z,9.27
2018-02-04T01:59:40.068Z,9.13
2018-02-04T02:02:08.677Z,9.90
2018-02-04T02:04:36.883Z,10.93
2018-02-04T02:07:05.119Z,11.63
2018-02-04T02:09:33.327Z,7.85
2018-02-04T02:12:01.581Z,9.65
2018-02-04T02:14:29.800Z,9.63
2018-02-04T02:16:58.800Z,9.65
2018-02-04T02:19:28.012Z,10.60
2018-02-04T02:21:56.614Z,9.90
2018-02-04T02:24:24.831Z,10.80
2018-02-04T02:26:53.056Z,10.98
2018-02-04T02:29:21.264Z,11.55
2018-02-04T02:31:49.469Z,13.18
2018-02-04T02:34:17.673Z,10.88
2018-02-04T02:36:45.883Z,11.63
2018-02-04T02:39:14.490Z,10.02
2018-02-04T02:41:42.713Z,9.48
2018-02-04T02:44:10.892Z,15.38
2018-02-04T02:46:39.076Z,11.88
2018-02-04T02:49:07.442Z,11.45
2018-02-04T02:51:35.650Z,11.27
2018-02-04T02:54:03.842Z,23.20
2018-02-04T02:56:32.046Z,16.42
2018-02-04T02:59:00.314Z,12.43
2018-02-04T03:01:28.544Z,10.52
2018-02-04T03:03:56.753Z,11.23
2018-02-04T03:06:25.729Z,13.00
2018-02-04T03:08:54.437Z,10.85
2018-02-04T03:11:23.428Z,15.10
2018-02-04T03:13:52.381Z,11.98
2018-02-04T03:16:20.609Z,11.98
2018-02-04T03:18:48.813Z,12.98
2018-02-04T03:21:17.041Z,17.40
2018-02-04T03:23:46.021Z,12.10
2018-02-04T03:26:14.993Z,10.10
2018-02-04T03:28:43.275Z,11.12
2018-02-04T03:31:11.459Z,10.55
2018-02-04T03:33:40.434Z,11.73
2018-02-04T03:36:08.656Z,10.80
2018-02-04T03:38:36.860Z,11.18
2018-02-04T03:41:05.072Z,10.93
2018-02-04T03:43:34.093Z,14.18
2018-02-04T03:46:02.568Z,9.32
2018-02-04T03:48:30.744Z,11.00
2018-02-04T03:50:58.941Z,10.70
2018-02-04T03:53:27.144Z,9.98
2018-02-04T03:55:55.373Z,10.40
2018-02-04T03:58:23.620Z,10.25
2018-02-04T04:00:52.578Z,12.60
2018-02-04T04:03:20.934Z,13.05
2018-02-04T04:05:49.252Z,11.02
2018-02-04T04:08:17.455Z,10.68
2018-02-04T04:10:45.697Z,10.35
2018-02-04T04:13:13.903Z,10.90
2018-02-04T04:15:42.085Z,9.77
2018-02-04T04:18:10.340Z,8.77
2018-02-04T04:20:39.312Z,9.90
2018-02-04T04:23:07.545Z,13.80
2018-02-04T04:25:35.748Z,9.75
2018-02-04T04:28:04.056Z,12.20
2018-02-04T04:30:33.086Z,12.50
2018-02-04T04:33:01.287Z,12.00
2018-02-04T04:35:29.496Z,13.95
2018-02-04T04:37:58.440Z,11.90
2018-02-04T04:40:26.745Z,13.07
2018-02-04T04:42:54.924Z,10.48
2018-02-04T04:45:23.916Z,12.15
2018-02-04T04:47:52.913Z,14.32
2018-02-04T04:50:21.920Z,10.45
2018-02-04T04:52:50.904Z,11.60
2018-02-04T04:55:19.858Z,12.90
2018-02-04T04:57:48.069Z,13.55
2018-02-04T05:00:17.040Z,10.77
2018-02-04T05:02:45.269Z,13.45
2018-02-04T05:05:13.485Z,14.38
2018-02-04T05:07:41.749Z,11.02
2018-02-04T05:10:09.953Z,13.98
2018-02-04T05:12:38.954Z,13.62
2018-02-04T05:15:07.204Z,11.05
2018-02-04T05:17:35.409Z,12.10
2018-02-04T05:20:03.617Z,11.70
2018-02-04T05:22:31.821Z,11.60
2018-02-04T05:25:00.019Z,12.13
2018-02-04T05:27:28.304Z,15.00
2018-02-04T05:29:57.065Z,13.13
2018-02-04T05:32:25.282Z,12.45
2018-02-04T05:34:53.511Z,12.60
2018-02-04T05:37:21.727Z,11.05
2018-02-04T05:39:49.980Z,15.90
2018-02-04T05:42:18.980Z,15.93
2018-02-04T05:44:47.202Z,14.00
2018-02-04T05:47:15.412Z,12.60
2018-02-04T05:49:47.237Z,15.43
2018-02-04T05:52:15.560Z,10.60
2018-02-04T05:54:43.776Z,14.18
2018-02-04T05:57:11.960Z,11.55
2018-02-04T05:59:40.220Z,14.73
2018-02-04T06:02:08.449Z,13.20
2018-02-04T06:04:37.403Z,12.93
2018-02-04T06:07:05.620Z,11.35
2018-02-04T06:09:33.887Z,15.85
2018-02-04T06:12:03.257Z,12.30
2018-02-04T06:14:32.082Z,13.40
2018-02-04T06:17:01.093Z,13.25
2018-02-04T06:19:29.286Z,13.07
2018-02-04T06:21:57.529Z,12.63
2018-02-04T06:24:25.712Z,14.52
2018-02-04T06:26:53.909Z,17.58
2018-02-04T06:29:22.137Z,14.20
2018-02-04T06:31:51.109Z,15.63
2018-02-04T06:34:19.349Z,23.27
2018-02-04T06:36:47.552Z,14.95
2018-02-04T06:39:16.879Z,15.60
2018-02-04T06:41:45.858Z,13.98
2018-02-04T06:44:15.108Z,15.27
2018-02-04T06:46:43.343Z,12.37
2018-02-04T06:49:12.312Z,13.35
2018-02-04T06:51:41.077Z,14.27
2018-02-04T06:54:09.318Z,17.65
2018-02-04T06:56:37.541Z,15.98
2018-02-04T06:59:05.756Z,14.68
2018-02-04T07:01:34.227Z,13.82
2018-02-04T07:04:02.498Z,15.75
2018-02-04T07:06:31.479Z,14.95
2018-02-04T07:09:00.468Z,13.85
2018-02-04T07:11:28.729Z,14.55
2018-02-04T07:13:56.956Z,14.25
2018-02-04T07:16:25.241Z,17.25
2018-02-04T07:18:53.476Z,14.85
2018-02-04T07:21:23.183Z,14.10
2018-02-04T07:23:52.148Z,14.30
2018-02-04T07:26:20.788Z,11.82
2018-02-04T07:28:49.130Z,14.10
2018-02-04T07:31:18.336Z,12.52
2018-02-04T07:33:47.305Z,16.75
2018-02-04T07:36:15.556Z,12.25
2018-02-04T07:38:43.861Z,13.10
2018-02-04T07:41:12.658Z,11.05
2018-02-04T07:43:41.641Z,10.55
2018-02-04T07:46:09.880Z,12.35
2018-02-04T07:48:38.068Z,13.77
2018-02-04T07:51:06.266Z,11.12
2018-02-04T07:53:35.264Z,9.98
2018-02-04T07:56:04.239Z,11.10
2018-02-04T07:58:32.733Z,10.70
2018-02-04T08:01:00.982Z,13.48
2018-02-04T08:03:29.186Z,9.38
2018-02-04T08:05:58.145Z,13.10
2018-02-04T08:08:26.360Z,13.40
2018-02-04T08:10:56.032Z,10.50
2018-02-04T08:13:24.240Z,13.77
2018-02-04T08:15:53.237Z,16.05
2018-02-04T08:18:22.209Z,15.57
2018-02-04T08:20:51.220Z,12.57
2018-02-04T08:23:20.188Z,18.12
2018-02-04T08:25:48.466Z,15.82
2018-02-04T08:28:17.280Z,16.23
2018-02-04T08:30:45.548Z,13.98
2018-02-04T08:33:14.497Z,17.40
2018-02-04T08:35:42.721Z,13.05
2018-02-04T08:38:11.516Z,17.62
2018-02-04T08:40:39.700Z,19.48
2018-02-04T08:43:07.924Z,15.63
2018-02-04T08:45:36.117Z,18.37
2018-02-04T08:48:05.090Z,20.50
2018-02-04T08:50:33.316Z,20.75
2018-02-04T08:53:01.541Z,25.42
2018-02-04T08:55:29.784Z,27.05
2018-02-04T08:57:58.000Z,21.17
2018-02-04T09:00:26.977Z,24.37
2018-02-04T09:02:55.284Z,24.15
2018-02-04T09:05:23.590Z,30.10
2018-02-04T09:07:51.789Z,24.02
2018-02-04T09:10:20.519Z,29.48
2018-02-04T09:12:48.727Z,31.45
2018-02-04T09:15:17.145Z,29.63
2018-02-04T09:17:45.365Z,21.90
2018-02-04T09:20:13.617Z,29.98
2018-02-04T09:22:41.844Z,25.35
2018-02-04T09:25:10.052Z,27.98
2018-02-04T09:27:39.020Z,26.37
2018-02-04T09:30:07.273Z,24.12
2018-02-04T09:32:36.395Z,28.75
2018-02-04T09:35:04.605Z,27.02
2018-02-04T09:37:32.849Z,26.50
2018-02-04T09:40:01.029Z,29.83
2018-02-04T09:42:29.240Z,28.12
2018-02-04T09:44:57.492Z,29.45
2018-02-04T09:47:26.459Z,22.05
2018-02-04T09:49:54.676Z,24.23
2018-02-04T09:52:22.853Z,19.20
2018-02-04T09:54:51.104Z,22.00
2018-02-04T09:57:20.054Z,23.62
2018-02-04T09:59:48.304Z,23.48
2018-02-04T10:02:16.539Z,27.35
2018-02-04T10:04:45.495Z,21.92
2018-02-04T10:07:13.706Z,18.95
2018-02-04T10:09:42.672Z,26.17
2018-02-04T10:12:10.904Z,24.60
2018-02-04T10:14:39.089Z,20.65
2018-02-04T10:17:07.996Z,25.30
2018-02-04T10:19:36.288Z,19.08
2018-02-04T10:22:04.504Z,18.15
2018-02-04T10:24:32.767Z,20.27
2018-02-04T10:27:01.093Z,15.60
2018-02-04T10:29:30.112Z,17.77
2018-02-04T10:31:58.323Z,15.55
2018-02-04T10:34:26.514Z,18.33
2018-02-04T10:36:54.734Z,13.75
2018-02-04T10:39:22.923Z,19.37
2018-02-04T10:41:51.905Z,21.33
2018-02-04T10:44:20.909Z,16.12
2018-02-04T10:46:50.085Z,14.95
2018-02-04T10:49:19.064Z,12.77
2018-02-04T10:51:52.792Z,12.85
2018-02-04T10:54:21.797Z,11.50
2018-02-04T10:56:49.992Z,10.45
2018-02-04T10:59:18.212Z,14.90
2018-02-04T11:01:46.683Z,17.25
2018-02-04T11:04:15.584Z,11.88
2018-02-04T11:06:43.800Z,10.30
2018-02-04T11:09:12.068Z,12.18
2018-02-04T11:11:40.316Z,11.97
2018-02-04T11:14:08.518Z,11.67
2018-02-04T11:16:36.733Z,11.13
2018-02-04T11:19:04.956Z,9.90
2018-02-04T11:21:33.938Z,11.10
2018-02-04T11:24:02.885Z,8.03
2018-02-04T11:26:31.089Z,11.00
2018-02-04T11:28:59.472Z,9.13
2018-02-04T11:31:28.017Z,11.10
2018-02-04T11:33:56.228Z,10.70
2018-02-04T11:36:24.436Z,9.53
2018-02-04T11:38:52.672Z,11.30
2018-02-04T11:41:20.888Z,10.17
2018-02-04T11:43:49.104Z,10.40
2018-02-04T11:46:17.336Z,9.00
2018-02-04T11:48:45.581Z,8.93
2018-02-04T11:51:14.560Z,11.10
2018-02-04T11:53:42.772Z,9.87
2018-02-04T11:56:10.973Z,10.20
2018-02-04T11:58:39.181Z,10.30
2018-02-04T12:01:07.955Z,9.63
2018-02-04T12:03:36.169Z,12.00
2018-02-04T12:06:04.423Z,9.10
2018-02-04T12:08:33.413Z,9.50
2018-02-04T12:11:01.720Z,11.37
2018-02-04T12:13:29.946Z,17.00
2018-02-04T12:15:58.134Z,10.07
2018-02-04T12:18:26.436Z,11.30
2018-02-04T12:20:54.630Z,10.00
2018-02-04T12:23:22.840Z,12.53
2018-02-04T12:25:51.132Z,9.40
2018-02-04T12:28:19.365Z,12.03
2018-02-04T12:30:47.584Z,10.07
2018-02-04T12:33:15.812Z,12.00
2018-02-04T12:35:44.028Z,11.03
2018-02-04T12:38:12.328Z,12.03
2018-02-04T12:40:41.348Z,17.60
2018-02-04T12:43:10.041Z,11.03
2018-02-04T12:45:38.236Z,11.60
2018-02-04T12:48:06.449Z,11.63
2018-02-04T12:50:35.453Z,10.90
2018-02-04T12:53:03.664Z,11.20
2018-02-04T12:55:32.047Z,10.90
2018-02-04T12:58:00.244Z,11.60
2018-02-04T13:00:28.464Z,10.57
2018-02-04T13:02:56.702Z,11.70
2018-02-04T13:05:24.914Z,12.23
2018-02-04T13:07:53.301Z,11.00
2018-02-04T13:10:21.492Z,10.80
2018-02-04T13:12:49.681Z,11.47
2018-02-04T13:15:17.892Z,12.70
2018-02-04T13:17:46.858Z,9.87
2018-02-04T13:20:15.144Z,14.07
2018-02-04T13:22:44.119Z,10.10
2018-02-04T13:25:12.345Z,12.80
2018-02-04T13:27:40.600Z,11.63
2018-02-04T13:30:08.812Z,12.33
2018-02-04T13:32:37.053Z,11.40
2018-02-04T13:35:05.311Z,11.40
2018-02-04T13:37:34.393Z,11.93
2018-02-04T13:40:02.592Z,12.70
2018-02-04T13:42:30.838Z,14.40
2018-02-04T13:44:59.029Z,13.80
2018-02-04T13:47:28.011Z,15.93
2018-02-04T13:49:57.898Z,12.03
2018-02-04T13:52:26.089Z,12.53
2018-02-04T13:54:54.285Z,15.87
2018-02-04T13:57:23.484Z,14.70
2018-02-04T13:59:52.432Z,13.60
2018-02-04T14:02:20.629Z,10.93
2018-02-04T14:04:48.852Z,13.17
2018-02-04T14:07:17.060Z,10.93
2018-02-04T14:09:45.293Z,12.20
2018-02-04T14:12:13.548Z,10.97
2018-02-04T14:14:41.759Z,10.63
2018-02-04T14:17:10.776Z,9.43
2018-02-04T14:19:39.392Z,10.23
2018-02-04T14:22:08.797Z,10.53
2018-02-04T14:24:37.797Z,11.17
2018-02-04T14:27:06.044Z,13.63
2018-02-04T14:29:35.016Z,14.43
2018-02-04T14:32:03.226Z,12.43
2018-02-04T14:34:32.236Z,9.00
2018-02-04T14:37:00.451Z,10.80
2018-02-04T14:39:28.666Z,10.00
2018-02-04T14:41:56.909Z,10.73
2018-02-04T14:44:25.136Z,10.00
2018-02-04T14:46:53.370Z,11.00
2018-02-04T14:49:21.648Z,11.95
2018-02-04T14:51:50.695Z,14.05
2018-02-04T14:54:19.429Z,10.57
2018-02-04T14:56:48.420Z,11.82
2018-02-04T14:59:16.637Z,12.55
2018-02-04T15:01:45.424Z,11.65
2018-02-04T15:04:13.632Z,12.07
2018-02-04T15:06:41.964Z,11.00
2018-02-04T15:09:10.181Z,10.60
2018-02-04T15:11:38.515Z,11.75
2018-02-04T15:14:06.702Z,13.30
2018-02-04T15:16:34.886Z,10.57
2018-02-04T15:19:03.106Z,13.50
2018-02-04T15:21:31.304Z,15.13
2018-02-04T15:23:59.614Z,12.80
2018-02-04T15:26:27.873Z,11.73
2018-02-04T15:28:56.041Z,17.12
2018-02-04T15:31:24.251Z,14.65
2018-02-04T15:33:52.476Z,15.20
2018-02-04T15:36:20.706Z,18.98
2018-02-04T15:38:48.893Z,22.45
2018-02-04T15:41:17.179Z,20.70
2018-02-04T15:43:46.152Z,16.58
2018-02-04T15:46:14.361Z,19.70
2018-02-04T15:48:42.568Z,21.02
2018-02-04T15:51:11.004Z,22.52
2018-02-04T15:53:40.000Z,17.70
2018-02-04T15:56:08.976Z,21.50
2018-02-04T15:58:37.984Z,16.37
2018-02-04T16:01:06.190Z,16.52
2018-02-04T16:03:34.372Z,18.42
2018-02-04T16:06:02.686Z,20.48
2018-02-04T16:08:30.892Z,17.65
2018-02-04T16:10:59.116Z,19.02
2018-02-04T16:13:27.844Z,17.98
2018-02-04T16:15:56.205Z,20.42
2018-02-04T16:18:25.165Z,23.48
2018-02-04T16:20:53.358Z,16.42
2018-02-04T16:23:21.716Z,18.67
2018-02-04T16:25:49.900Z,22.30
2018-02-04T16:28:18.080Z,20.50
2018-02-04T16:30:46.292Z,18.98
2018-02-04T16:33:14.725Z,19.70
2018-02-04T16:35:42.955Z,18.65
2018-02-04T16:38:11.141Z,22.87
2018-02-04T16:40:39.382Z,20.35
2018-02-04T16:43:07.622Z,23.65
2018-02-04T16:45:35.856Z,22.90
2018-02-04T16:48:04.049Z,20.15
2018-02-04T16:50:32.232Z,25.02
2018-02-04T16:53:00.455Z,27.02
2018-02-04T16:55:28.724Z,19.92
2018-02-04T16:57:58.301Z,25.73
2018-02-04T17:00:26.664Z,26.35
2018-02-04T17:02:54.880Z,27.05
2018-02-04T17:05:23.117Z,21.67
2018-02-04T17:07:51.341Z,25.70
2018-02-04T17:10:19.825Z,29.70
2018-02-04T17:12:48.020Z,28.83
2018-02-04T17:15:16.201Z,26.23
2018-02-04T17:17:44.405Z,29.17
2018-02-04T17:20:12.868Z,30.55
2018-02-04T17:22:41.126Z,27.15
2018-02-04T17:25:09.330Z,27.87
2018-02-04T17:27:37.542Z,29.30
2018-02-04T17:30:06.212Z,29.77
2018-02-04T17:32:35.212Z,34.22
2018-02-04T17:35:03.401Z,29.00
2018-02-04T17:37:32.213Z,31.37
2018-02-04T17:40:00.428Z,34.15
2018-02-04T17:42:28.800Z,28.87
2018-02-04T17:44:57.088Z,27.95
2018-02-04T17:47:26.064Z,36.60
2018-02-04T17:49:54.298Z,40.28
2018-02-04T17:52:22.517Z,35.15
2018-02-04T17:54:51.513Z,38.88
2018-02-04T17:57:19.724Z,35.42
2018-02-04T17:59:48.816Z,32.05
2018-02-04T18:02:17.760Z,42.70
2018-02-04T18:04:46.052Z,29.98
2018-02-04T18:07:15.035Z,33.95
2018-02-04T18:09:44.036Z,33.33
2018-02-04T18:12:13.051Z,33.58
2018-02-04T18:14:41.301Z,32.65
2018-02-04T18:17:09.597Z,28.77
2018-02-04T18:19:37.804Z,37.28
2018-02-04T18:22:06.240Z,33.00
2018-02-04T18:24:35.236Z,33.53
2018-02-04T18:27:04.231Z,34.20
2018-02-04T18:29:33.307Z,37.60
2018-02-04T18:32:02.289Z,47.05
2018-02-04T18:34:30.516Z,46.70
2018-02-04T18:36:58.831Z,36.58
2018-02-04T18:39:27.025Z,43.05
2018-02-04T18:41:56.752Z,37.60
2018-02-04T18:44:25.824Z,43.80
2018-02-04T18:46:54.023Z,37.53
2018-02-04T18:49:22.233Z,40.17
2018-02-04T18:51:50.624Z,39.80
2018-02-04T18:54:18.813Z,51.40
2018-02-04T18:56:47.125Z,41.00
2018-02-04T18:59:15.360Z,46.08
2018-02-04T19:01:43.545Z,57.42
2018-02-04T19:04:11.733Z,49.22
2018-02-04T19:06:40.918Z,38.28
2018-02-04T19:09:09.100Z,49.58
2018-02-04T19:11:38.058Z,42.53
2018-02-04T19:14:06.264Z,44.90
2018-02-04T19:16:35.236Z,52.58
2018-02-04T19:19:03.541Z,47.72
2018-02-04T19:21:31.728Z,53.80
2018-02-04T19:24:00.171Z,41.75
2018-02-04T19:26:28.381Z,59.33
2018-02-04T19:28:56.593Z,55.97
2018-02-04T19:31:25.181Z,49.03
2018-02-04T19:33:53.396Z,55.35
2018-02-04T19:36:22.401Z,50.42
2018-02-04T19:38:50.590Z,50.83
2018-02-04T19:41:18.842Z,58.10
2018-02-04T19:43:47.094Z,51.15
2018-02-04T19:46:15.283Z,52.28
2018-02-04T19:48:44.262Z,73.25
2018-02-04T19:51:13.286Z,71.18
2018-02-04T19:53:41.478Z,46.97
2018-02-04T19:56:10.229Z,50.17
2018-02-04T19:58:38.935Z,59.35
2018-02-04T20:01:07.736Z,51.30
2018-02-04T20:03:35.973Z,49.60
2018-02-04T20:06:05.005Z,56.05
2018-02-04T20:08:33.216Z,57.60
2018-02-04T20:11:01.458Z,55.67
2018-02-04T20:13:29.664Z,64.07
2018-02-04T20:15:57.879Z,52.58
2018-02-04T20:18:26.124Z,54.35
2018-02-04T20:20:55.098Z,51.45
2018-02-04T20:23:23.289Z,68.40
2018-02-04T20:25:52.325Z,55.20
2018-02-04T20:28:20.529Z,57.42
2018-02-04T20:30:48.837Z,53.97
2018-02-04T20:33:23.482Z,56.85
2018-02-04T20:35:51.692Z,55.83
2018-02-04T20:38:19.888Z,55.55
2018-02-04T20:40:48.192Z,56.28
2018-02-04T20:46:26.758Z,68.20
2018-02-04T20:48:54.973Z,52.83
2018-02-04T20:51:23.165Z,56.22
2018-02-04T20:53:52.164Z,65.57
2018-02-04T20:56:21.166Z,54.00
2018-02-04T20:58:49.354Z,59.05
2018-02-04T21:01:17.565Z,67.15
2018-02-04T21:03:45.758Z,64.18
2018-02-04T21:06:13.986Z,56.60
2018-02-04T21:08:42.218Z,61.28
2018-02-04T21:11:11.218Z,65.50
2018-02-04T21:13:40.221Z,59.55
2018-02-04T21:16:08.488Z,58.42
2018-02-04T21:18:37.625Z,56.65
2018-02-04T21:21:05.848Z,62.95
2018-02-04T21:23:34.816Z,57.00
2018-02-04T21:26:03.045Z,53.03
2018-02-04T21:28:31.656Z,59.72
2018-02-04T21:30:59.964Z,61.97
2018-02-04T21:33:28.228Z,52.78
2018-02-04T21:35:56.448Z,68.40
2018-02-04T21:38:24.710Z,57.03
2018-02-04T21:40:53.170Z,55.40
2018-02-04T21:43:21.356Z,58.30
2018-02-04T21:45:50.328Z,68.15
2018-02-04T21:48:18.562Z,54.97
2018-02-04T21:50:46.776Z,61.90
2018-02-04T21:53:15.010Z,58.08
2018-02-04T21:55:43.220Z,65.90
2018-02-04T21:58:11.502Z,61.60
2018-02-04T22:00:39.708Z,69.87
2018-02-04T22:03:07.968Z,66.93
2018-02-04T22:05:36.945Z,69.60
2018-02-04T22:08:05.156Z,56.85
2018-02-04T22:10:33.370Z,69.65
2018-02-04T22:13:01.774Z,68.45
2018-02-04T22:15:30.001Z,68.40
2018-02-04T22:17:58.200Z,64.18
2018-02-04T22:20:26.416Z,65.30
2018-02-04T22:22:55.594Z,63.13
2018-02-04T22:25:24.577Z,54.53
2018-02-04T22:27:52.836Z,53.90
2018-02-04T22:30:21.047Z,66.28
2018-02-04T22:32:50.002Z,69.80
2018-02-04T22:35:18.232Z,59.25
2018-02-04T22:37:46.444Z,61.85
2018-02-04T22:40:14.657Z,68.70
2018-02-04T22:42:43.656Z,61.70
2018-02-04T22:45:11.868Z,68.80
2018-02-04T22:47:40.080Z,65.32
2018-02-04T22:50:08.405Z,57.20
2018-02-04T22:52:36.585Z,59.97
2018-02-04T22:55:04.764Z,62.78
2018-02-04T22:57:33.009Z,50.65
2018-02-04T23:00:01.571Z,63.00
2018-02-04T23:02:29.796Z,58.58
2018-02-04T23:04:58.012Z,56.30
2018-02-04T23:07:26.993Z,61.15
2018-02-04T23:09:55.205Z,53.42
2018-02-04T23:12:23.393Z,52.88
2018-02-04T23:14:51.608Z,57.28
2018-02-04T23:17:19.896Z,66.40
2018-02-04T23:19:48.134Z,57.03
2018-02-04T23:22:16.325Z,56.88
2018-02-04T23:24:44.543Z,50.00
2018-02-04T23:27:12.794Z,54.85
2018-02-04T23:29:41.015Z,57.03
2018-02-04T23:32:09.265Z,53.30
2018-02-04T23:34:37.497Z,54.60
2018-02-04T23:37:05.685Z,58.33
2018-02-04T23:39:33.873Z,53.15
2018-02-04T23:42:02.900Z,57.08
2018-02-04T23:44:31.128Z,53.58
2018-02-04T23:47:01.062Z,58.85
2018-02-04T23:49:29.293Z,54.33
2018-02-04T23:51:57.704Z,56.75
2018-02-04T23:54:26.700Z,59.83
2018-02-04T23:56:55.665Z,50.70
2018-02-04T23:59:23.898Z,54.88
